createdAt,value
2022-08-19T05:42:08.795Z,7.35
2022-08-19T05:44:39.767Z,7.70
2022-08-19T05:47:09.443Z,7.47
2022-08-19T05:49:37.743Z,7.40
2022-08-19T05:52:07.204Z,7.90
2022-08-19T05:54:34.672Z,8.18
2022-08-19T05:57:02.895Z,7.45
2022-08-19T05:59:29.583Z,7.40
2022-08-19T06:01:58.485Z,7.85
2022-08-19T06:04:25.512Z,7.80
2022-08-19T06:06:54.705Z,8.48
2022-08-19T06:09:23.035Z,10.18
2022-08-19T06:11:56.066Z,9.45
2022-08-19T06:14:28.013Z,9.90
2022-08-19T06:16:55.264Z,11.02
2022-08-19T06:19:25.085Z,10.70
2022-08-19T06:21:53.110Z,12.85
2022-08-19T06:24:24.901Z,10.70
2022-08-19T06:26:56.723Z,13.20
2022-08-19T06:29:26.541Z,11.80
2022-08-19T06:31:59.029Z,13.90
2022-08-19T06:34:28.905Z,13.80
2022-08-19T06:36:57.845Z,13.50
2022-08-19T06:39:28.048Z,15.63
2022-08-19T06:41:58.975Z,15.93
2022-08-19T06:44:28.763Z,15.98
2022-08-19T06:46:57.701Z,18.83
2022-08-19T06:49:25.979Z,17.17
2022-08-19T06:51:52.820Z,21.70
2022-08-19T06:54:20.417Z,23.35
2022-08-19T06:56:48.024Z,22.33
2022-08-19T06:59:18.823Z,23.70
2022-08-19T07:01:52.262Z,24.58
2022-08-19T07:04:22.823Z,22.70
2022-08-19T07:06:55.089Z,25.98
2022-08-19T07:09:22.108Z,26.42
2022-08-19T07:11:51.474Z,25.90
2022-08-19T07:14:26.113Z,27.63
2022-08-19T07:16:55.862Z,26.95
2022-08-19T07:19:24.326Z,28.60
2022-08-19T07:21:55.373Z,27.08
2022-08-19T07:24:25.611Z,27.65
2022-08-19T07:26:55.672Z,27.40
2022-08-19T07:29:28.525Z,27.17
2022-08-19T07:32:00.888Z,26.30
2022-08-19T07:34:29.734Z,27.13
2022-08-19T07:36:58.898Z,25.67
2022-08-19T07:39:31.645Z,25.80
2022-08-19T07:42:00.575Z,25.75
2022-08-19T07:44:27.935Z,24.75
2022-08-19T07:46:57.370Z,25.85
2022-08-19T07:49:24.599Z,25.17
2022-08-19T07:51:57.527Z,23.75
2022-08-19T07:54:26.571Z,23.42
2022-08-19T07:56:53.555Z,23.95
2022-08-19T07:59:21.570Z,24.08
2022-08-19T08:01:49.008Z,21.45
2022-08-19T08:04:34.552Z,23.67
2022-08-19T08:07:19.890Z,22.67
2022-08-19T08:09:49.608Z,22.45
2022-08-19T08:12:34.057Z,23.00
2022-08-19T08:15:08.356Z,21.08
2022-08-19T08:17:49.409Z,22.55
2022-08-19T08:20:19.310Z,19.63
2022-08-19T08:23:06.094Z,19.58
2022-08-19T08:25:34.477Z,19.58
2022-08-19T08:28:02.407Z,18.80
2022-08-19T08:30:33.281Z,18.52
2022-08-19T08:33:02.472Z,17.80
2022-08-19T08:35:29.728Z,17.40
2022-08-19T08:37:57.680Z,17.02
2022-08-19T08:40:39.859Z,17.17
2022-08-19T08:43:32.195Z,15.73
2022-08-19T08:46:31.042Z,15.82
2022-08-19T08:49:26.156Z,16.50
2022-08-19T08:52:01.648Z,16.15
2022-08-19T08:54:35.674Z,15.57
2022-08-19T08:59:35.488Z,16.25
2022-08-19T09:02:02.491Z,16.25
2022-08-19T09:04:29.999Z,15.95
2022-08-19T09:07:36.063Z,16.23
2022-08-19T09:10:32.490Z,16.05
2022-08-19T09:13:02.725Z,15.30
2022-08-19T09:15:41.987Z,15.95
2022-08-19T09:18:15.099Z,15.25
2022-08-19T09:20:42.604Z,14.88
2022-08-19T09:23:11.704Z,15.27
2022-08-19T09:25:38.542Z,15.15
2022-08-19T09:28:05.690Z,15.90
2022-08-19T09:30:42.792Z,15.32
2022-08-19T09:33:09.961Z,15.05
2022-08-19T09:35:49.461Z,14.13
2022-08-19T09:38:20.149Z,10.30
2022-08-19T09:40:46.862Z,10.82
2022-08-19T09:43:13.650Z,12.38
2022-08-19T09:45:40.877Z,12.05
2022-08-19T09:48:07.518Z,12.57
2022-08-19T09:50:51.676Z,13.65
2022-08-19T09:53:19.619Z,12.55
2022-08-19T09:55:49.526Z,13.38
2022-08-19T09:58:18.372Z,14.02
2022-08-19T10:00:51.032Z,16.20
2022-08-19T10:03:18.368Z,16.48
2022-08-19T10:05:55.313Z,18.30
2022-08-19T10:08:33.855Z,18.08
2022-08-19T10:11:28.320Z,18.35
2022-08-19T10:13:49.693Z,15.63
2022-08-19T10:16:20.915Z,19.45
2022-08-19T10:18:49.642Z,19.85
2022-08-19T10:21:22.946Z,20.52
2022-08-19T10:23:56.355Z,18.90
2022-08-19T10:26:28.517Z,20.42
2022-08-19T10:28:57.204Z,21.10
2022-08-19T10:32:01.947Z,22.40
2022-08-19T10:34:27.100Z,21.20
2022-08-19T10:36:56.273Z,21.85
2022-08-19T10:39:30.757Z,21.63
2022-08-19T10:41:58.163Z,20.77
2022-08-19T10:44:25.048Z,19.92
2022-08-19T10:49:26.612Z,22.25
2022-08-19T10:52:18.565Z,21.35
2022-08-19T10:55:08.133Z,22.30
2022-08-19T11:00:24.064Z,22.30
2022-08-19T11:02:51.543Z,23.13
2022-08-19T11:05:19.202Z,22.52
2022-08-19T11:07:46.357Z,22.17
2022-08-19T11:10:19.475Z,21.88
2022-08-19T11:12:48.127Z,22.75
2022-08-19T11:15:15.130Z,23.13
2022-08-19T11:17:42.743Z,20.77
2022-08-19T11:20:10.703Z,22.40
2022-08-19T11:22:41.672Z,22.63
2022-08-19T11:25:10.747Z,21.40
2022-08-19T11:27:44.377Z,22.42
2022-08-19T11:32:45.666Z,20.88
2022-08-19T11:35:15.939Z,23.38
2022-08-19T11:37:42.625Z,22.13
2022-08-19T11:40:10.168Z,22.65
2022-08-19T11:42:55.808Z,21.90
2022-08-19T11:45:23.357Z,20.05
2022-08-19T11:47:50.287Z,21.73
2022-08-19T11:50:17.580Z,22.00
2022-08-19T11:52:46.075Z,21.45
2022-08-19T11:55:14.484Z,19.02
2022-08-19T11:57:44.787Z,20.08
2022-08-19T12:00:13.831Z,20.25
2022-08-19T12:02:41.538Z,21.05
2022-08-19T12:05:12.231Z,19.90
2022-08-19T12:07:42.330Z,18.13
2022-08-19T12:10:10.686Z,17.38
2022-08-19T12:12:43.202Z,16.83
2022-08-19T12:15:11.887Z,17.58
2022-08-19T12:17:39.330Z,16.83
2022-08-19T12:20:07.646Z,15.20
2022-08-19T12:22:34.455Z,15.30
2022-08-19T12:25:01.771Z,13.35
2022-08-19T12:27:40.316Z,13.57
2022-08-19T12:30:11.378Z,13.45
2022-08-19T12:32:38.561Z,12.57
2022-08-19T12:35:06.621Z,12.98
2022-08-19T12:37:33.550Z,13.80
2022-08-19T12:40:00.514Z,12.00
2022-08-19T12:42:27.681Z,10.80
2022-08-19T12:44:54.684Z,11.68
2022-08-19T12:47:21.963Z,10.85
2022-08-19T12:49:53.954Z,10.27
2022-08-19T12:52:28.083Z,9.13
2022-08-19T12:54:56.586Z,8.20
2022-08-19T12:57:32.684Z,8.35
2022-08-19T13:00:04.838Z,9.45
2022-08-19T13:02:33.135Z,9.45
2022-08-19T13:05:07.847Z,9.02
2022-08-19T13:07:34.528Z,8.70
2022-08-19T13:10:01.482Z,9.65
2022-08-19T13:12:28.124Z,9.90
2022-08-19T13:14:55.751Z,8.68
2022-08-19T13:17:23.097Z,10.10
2022-08-19T13:19:49.829Z,8.77
2022-08-19T13:22:16.590Z,9.15
2022-08-19T13:24:47.047Z,8.88
2022-08-19T13:27:14.775Z,7.30
2022-08-19T13:30:03.093Z,7.78
2022-08-19T13:32:49.032Z,7.68
2022-08-19T13:35:17.184Z,7.72
2022-08-19T13:37:44.710Z,6.93
2022-08-19T13:40:21.087Z,6.70
2022-08-19T13:42:50.692Z,5.85
2022-08-19T13:45:20.567Z,5.55
2022-08-19T13:47:48.816Z,5.25
2022-08-19T13:50:18.482Z,5.28
2022-08-19T13:52:45.524Z,5.07
2022-08-19T13:55:13.336Z,4.65
2022-08-19T13:57:40.142Z,4.22
2022-08-19T14:00:19.302Z,4.53
2022-08-19T14:02:48.095Z,4.45
2022-08-19T14:05:16.775Z,4.22
2022-08-19T14:07:43.568Z,4.13
2022-08-19T14:10:12.600Z,4.05
2022-08-19T14:12:39.716Z,4.18
2022-08-19T14:15:09.408Z,3.95
2022-08-19T14:17:39.491Z,3.38
2022-08-19T14:20:10.864Z,3.88
2022-08-19T14:22:39.594Z,3.47
2022-08-19T14:25:11.203Z,3.22
2022-08-19T14:27:39.926Z,3.10
2022-08-19T14:30:13.257Z,2.92
2022-08-19T14:32:40.215Z,2.55
2022-08-19T14:35:08.391Z,2.75
2022-08-19T14:37:37.253Z,2.70
2022-08-19T14:40:18.590Z,2.08
2022-08-19T14:42:45.724Z,2.75
2022-08-19T14:45:12.953Z,2.22
2022-08-19T14:47:40.855Z,2.45
2022-08-19T14:50:18.438Z,2.42
2022-08-19T14:52:49.322Z,2.38
2022-08-19T14:55:19.463Z,2.83
2022-08-19T14:57:46.407Z,2.50
2022-08-19T15:00:14.461Z,2.65
2022-08-19T15:02:42.562Z,2.80
2022-08-19T15:05:09.871Z,2.65
2022-08-19T15:07:36.987Z,2.80
2022-08-19T15:10:05.085Z,2.90
2022-08-19T15:12:31.686Z,3.13
2022-08-19T15:14:58.305Z,3.08
2022-08-19T15:17:45.816Z,3.20
2022-08-19T15:20:16.743Z,3.05
2022-08-19T15:22:43.497Z,3.35
2022-08-19T15:25:13.319Z,3.55
2022-08-19T15:27:41.884Z,3.60
2022-08-19T15:30:10.489Z,4.68
2022-08-19T15:32:38.332Z,4.45
2022-08-19T15:35:07.343Z,4.60
2022-08-19T15:37:37.106Z,5.18
2022-08-19T15:40:06.037Z,5.35
2022-08-19T15:42:33.101Z,6.18
2022-08-19T15:45:00.406Z,5.88
2022-08-19T15:47:34.900Z,5.80
2022-08-19T15:50:15.429Z,6.60
2022-08-19T15:52:56.482Z,6.78
2022-08-19T15:55:34.104Z,6.88
2022-08-19T15:58:28.920Z,6.97
2022-08-19T16:01:20.427Z,6.88
2022-08-19T16:04:15.014Z,7.38
2022-08-19T16:06:53.530Z,6.68
2022-08-19T16:09:27.238Z,7.50
2022-08-19T16:11:57.225Z,7.65
2022-08-19T16:14:30.183Z,7.88
2022-08-19T16:16:57.110Z,7.38
2022-08-19T16:19:24.632Z,7.35
2022-08-19T16:21:54.260Z,7.10
2022-08-19T16:24:23.784Z,6.40
2022-08-19T16:26:50.974Z,6.88
2022-08-19T16:29:30.244Z,6.38
2022-08-19T16:32:04.044Z,6.85
2022-08-19T16:34:31.678Z,7.38
2022-08-19T16:36:59.479Z,7.28
2022-08-19T16:39:26.110Z,7.28
2022-08-19T16:41:52.795Z,7.13
2022-08-19T16:44:20.896Z,7.60
2022-08-19T16:46:58.481Z,5.40
2022-08-19T16:49:53.976Z,5.78
2022-08-19T16:52:14.939Z,5.30
2022-08-19T16:54:43.784Z,5.00
2022-08-19T16:57:12.330Z,5.53
2022-08-19T16:59:48.298Z,5.82
2022-08-19T17:02:19.019Z,6.28
2022-08-19T17:04:58.318Z,6.15
2022-08-19T17:07:27.173Z,6.50
2022-08-19T17:09:53.856Z,4.80
2022-08-19T17:12:22.213Z,5.72
2022-08-19T17:14:57.696Z,5.60
2022-08-19T17:17:28.758Z,6.05
2022-08-19T17:19:55.953Z,6.10
2022-08-19T17:22:22.649Z,6.03
2022-08-19T17:24:49.430Z,5.70
2022-08-19T17:27:16.144Z,6.03
2022-08-19T17:29:46.846Z,6.10
2022-08-19T17:32:14.449Z,4.80
2022-08-19T17:34:41.136Z,5.18
2022-08-19T17:37:07.987Z,4.30
2022-08-19T17:39:38.901Z,4.70
2022-08-19T17:42:07.296Z,4.80
2022-08-19T17:44:36.593Z,4.57
2022-08-19T17:47:04.324Z,4.60
2022-08-19T17:49:33.380Z,4.70
2022-08-19T17:52:00.803Z,4.35
2022-08-19T17:54:33.263Z,4.22
2022-08-19T17:57:01.339Z,4.78
2022-08-19T17:59:30.203Z,4.40
2022-08-19T18:01:57.532Z,3.50
2022-08-19T18:04:25.956Z,3.33
2022-08-19T18:06:55.126Z,3.10
2022-08-19T18:09:38.624Z,3.10
2022-08-19T18:12:11.144Z,3.00
2022-08-19T18:14:39.299Z,3.30
2022-08-19T18:17:09.944Z,2.30
2022-08-19T18:19:41.345Z,2.38
2022-08-19T18:22:11.807Z,2.40
2022-08-19T18:24:40.384Z,2.40
2022-08-19T18:27:07.207Z,2.20
2022-08-19T18:29:34.200Z,2.20
2022-08-19T18:32:00.896Z,2.10
2022-08-19T18:34:29.395Z,2.08
2022-08-19T18:36:56.107Z,2.17
2022-08-19T18:39:44.262Z,2.33
2022-08-19T18:42:35.093Z,1.90
2022-08-19T18:45:20.887Z,2.40
2022-08-19T18:48:06.391Z,2.45
2022-08-19T18:50:41.505Z,2.20
2022-08-19T18:53:08.246Z,2.10
2022-08-19T18:55:34.892Z,2.05
2022-08-19T18:58:02.690Z,2.00
2022-08-19T19:00:30.254Z,1.90
2022-08-19T19:02:56.959Z,2.33
2022-08-19T19:05:25.625Z,2.10
2022-08-19T19:07:54.254Z,2.42
2022-08-19T19:10:20.993Z,2.30
2022-08-19T19:12:48.735Z,2.00
2022-08-19T19:15:15.401Z,2.15
2022-08-19T19:17:42.134Z,2.00
2022-08-19T19:20:08.940Z,1.90
2022-08-19T19:22:35.884Z,1.95
2022-08-19T19:25:02.702Z,2.03
2022-08-19T19:27:29.376Z,2.10
2022-08-19T19:29:56.182Z,2.28
2022-08-19T19:32:26.902Z,2.17
2022-08-19T19:34:54.446Z,1.90
2022-08-19T19:37:22.463Z,2.00
2022-08-19T19:39:49.210Z,2.10
2022-08-19T19:42:20.456Z,1.83
2022-08-19T19:44:50.149Z,2.00
2022-08-19T19:47:18.435Z,1.98
2022-08-19T19:50:13.681Z,2.17
2022-08-19T19:52:38.991Z,2.10
2022-08-19T19:55:07.232Z,2.45
2022-08-19T19:57:34.045Z,2.58
2022-08-19T20:00:00.807Z,2.70
2022-08-19T20:02:27.589Z,2.70
2022-08-19T20:04:56.230Z,2.95
2022-08-19T20:07:43.029Z,3.00
2022-08-19T20:10:09.819Z,3.63
2022-08-19T20:12:36.511Z,3.00
2022-08-19T20:15:04.819Z,3.33
2022-08-19T20:17:32.459Z,3.15
2022-08-19T20:19:59.088Z,3.17
2022-08-19T20:22:25.906Z,3.28
2022-08-19T20:24:53.768Z,2.85
2022-08-19T20:27:21.610Z,3.20
2022-08-19T20:29:53.408Z,3.47
2022-08-19T20:32:20.094Z,2.80
2022-08-19T20:34:49.029Z,3.10
2022-08-19T20:37:16.088Z,3.28
2022-08-19T20:39:42.932Z,2.53
2022-08-19T20:42:09.652Z,3.10
2022-08-19T20:44:37.040Z,3.28
2022-08-19T20:47:04.289Z,2.90
2022-08-19T20:49:32.465Z,3.40
2022-08-19T20:51:59.162Z,3.50
2022-08-19T20:54:26.840Z,3.30
2022-08-19T20:56:54.275Z,3.42
2022-08-19T20:59:21.956Z,3.53
2022-08-19T21:01:51.673Z,3.10
